sensor_id;sensor_type;location;lat;lon;timestamp;pressure;altitude;pressure_sealevel;temperature;humidity
11440;BME280;5776;51.814;4.510;2022-08-04T00:01:18;101362.34;;;20.66;86.75
11440;BME280;5776;51.814;4.510;2022-08-04T00:04:13;101354.78;;;20.63;86.10
11440;BME280;5776;51.814;4.510;2022-08-04T00:07:03;101361.47;;;20.62;87.09
11440;BME280;5776;51.814;4.510;2022-08-04T00:09:38;101366.50;;;20.60;86.68
11440;BME280;5776;51.814;4.510;2022-08-04T00:12:06;101355.94;;;20.62;87.12
11440;BME280;5776;51.814;4.510;2022-08-04T00:14:37;101359.72;;;20.58;87.04
11440;BME280;5776;51.814;4.510;2022-08-04T00:17:07;101359.25;;;20.56;87.31
11440;BME280;5776;51.814;4.510;2022-08-04T00:19:40;101354.63;;;20.47;87.64
11440;BME280;5776;51.814;4.510;2022-08-04T00:22:10;101349.91;;;20.48;87.63
11440;BME280;5776;51.814;4.510;2022-08-04T00:24:38;101350.22;;;20.46;87.97
11440;BME280;5776;51.814;4.510;2022-08-04T00:27:06;101351.41;;;20.45;87.35
11440;BME280;5776;51.814;4.510;2022-08-04T00:29:33;101347.84;;;20.45;87.63
11440;BME280;5776;51.814;4.510;2022-08-04T00:32:00;101341.84;;;20.43;88.06
11440;BME280;5776;51.814;4.510;2022-08-04T00:34:30;101343.91;;;20.46;87.41
11440;BME280;5776;51.814;4.510;2022-08-04T00:36:57;101349.91;;;20.48;88.10
11440;BME280;5776;51.814;4.510;2022-08-04T00:39:24;101347.63;;;20.50;87.40
11440;BME280;5776;51.814;4.510;2022-08-04T00:45:03;101336.25;;;20.52;87.98
11440;BME280;5776;51.814;4.510;2022-08-04T00:55:55;101338.13;;;20.72;86.39
11440;BME280;5776;51.814;4.510;2022-08-04T01:01:02;101340.41;;;20.58;87.54
11440;BME280;5776;51.814;4.510;2022-08-04T01:11:16;101321.25;;;20.28;85.94
11440;BME280;5776;51.814;4.510;2022-08-04T01:16:16;101309.50;;;20.19;86.09
11440;BME280;5776;51.814;4.510;2022-08-04T01:24:27;101323.53;;;20.14;84.39
11440;BME280;5776;51.814;4.510;2022-08-04T01:29:33;101322.16;;;20.20;85.62
11440;BME280;5776;51.814;4.510;2022-08-04T01:34:42;101328.94;;;20.22;86.59
11440;BME280;5776;51.814;4.510;2022-08-04T01:40:16;101319.09;;;20.46;86.23
11440;BME280;5776;51.814;4.510;2022-08-04T01:42:43;101321.44;;;20.56;86.29
11440;BME280;5776;51.814;4.510;2022-08-04T01:45:11;101321.75;;;20.42;87.16
11440;BME280;5776;51.814;4.510;2022-08-04T01:47:52;101315.06;;;20.43;87.29
11440;BME280;5776;51.814;4.510;2022-08-04T01:50:20;101311.25;;;20.36;87.43
11440;BME280;5776;51.814;4.510;2022-08-04T01:52:46;101317.47;;;20.33;87.35
11440;BME280;5776;51.814;4.510;2022-08-04T01:55:14;101310.22;;;20.28;87.94
11440;BME280;5776;51.814;4.510;2022-08-04T01:57:51;101298.28;;;20.24;87.61
11440;BME280;5776;51.814;4.510;2022-08-04T02:00:23;101306.06;;;20.10;85.33
11440;BME280;5776;51.814;4.510;2022-08-04T02:02:52;101302.72;;;20.04;85.49
11440;BME280;5776;51.814;4.510;2022-08-04T02:05:20;101307.41;;;20.03;85.94
11440;BME280;5776;51.814;4.510;2022-08-04T02:10:29;101299.38;;;20.11;86.54
11440;BME280;5776;51.814;4.510;2022-08-04T02:15:41;101308.13;;;20.13;87.43
11440;BME280;5776;51.814;4.510;2022-08-04T02:18:18;101308.59;;;20.15;87.33
11440;BME280;5776;51.814;4.510;2022-08-04T02:20:49;101310.56;;;20.14;88.20
11440;BME280;5776;51.814;4.510;2022-08-04T02:26:00;101302.38;;;20.05;88.93
11440;BME280;5776;51.814;4.510;2022-08-04T02:33:45;101302.38;;;20.05;89.17
11440;BME280;5776;51.814;4.510;2022-08-04T02:36:29;101296.38;;;20.03;88.14
11440;BME280;5776;51.814;4.510;2022-08-04T02:38:58;101297.53;;;20.02;88.70
11440;BME280;5776;51.814;4.510;2022-08-04T02:41:27;101294.06;;;19.93;88.14
11440;BME280;5776;51.814;4.510;2022-08-04T02:43:58;101295.09;;;19.89;89.05
11440;BME280;5776;51.814;4.510;2022-08-04T02:46:26;101303.50;;;19.92;88.24
11440;BME280;5776;51.814;4.510;2022-08-04T02:48:53;101302.69;;;19.92;88.45
11440;BME280;5776;51.814;4.510;2022-08-04T02:51:27;101298.88;;;19.96;87.95
11440;BME280;5776;51.814;4.510;2022-08-04T02:53:56;101298.56;;;19.98;88.41
11440;BME280;5776;51.814;4.510;2022-08-04T02:56:23;101289.84;;;20.08;88.42
11440;BME280;5776;51.814;4.510;2022-08-04T02:59:06;101286.66;;;20.18;87.20
11440;BME280;5776;51.814;4.510;2022-08-04T03:01:33;101287.25;;;20.24;87.19
11440;BME280;5776;51.814;4.510;2022-08-04T03:13:14;101289.53;;;20.10;88.31
11440;BME280;5776;51.814;4.510;2022-08-04T04:12:25;101257.41;;;19.80;87.19
11440;BME280;5776;51.814;4.510;2022-08-04T04:17:51;101269.91;;;19.78;87.66
11440;BME280;5776;51.814;4.510;2022-08-04T04:26:06;101266.91;;;19.71;88.19
11440;BME280;5776;51.814;4.510;2022-08-04T04:28:52;101269.53;;;19.67;87.87
11440;BME280;5776;51.814;4.510;2022-08-04T04:32:09;101271.31;;;19.63;87.99
11440;BME280;5776;51.814;4.510;2022-08-04T04:45:48;101276.78;;;19.72;89.32
11440;BME280;5776;51.814;4.510;2022-08-04T04:59:57;101281.66;;;19.66;89.59
11440;BME280;5776;51.814;4.510;2022-08-04T05:05:25;101286.06;;;19.67;89.31
11440;BME280;5776;51.814;4.510;2022-08-04T05:10:48;101282.16;;;19.68;89.26
11440;BME280;5776;51.814;4.510;2022-08-04T05:13:35;101288.94;;;19.71;89.51
11440;BME280;5776;51.814;4.510;2022-08-04T05:16:18;101293.66;;;19.70;90.19
11440;BME280;5776;51.814;4.510;2022-08-04T05:18:51;101296.41;;;19.70;90.23
11440;BME280;5776;51.814;4.510;2022-08-04T05:21:35;101290.91;;;19.70;90.91
11440;BME280;5776;51.814;4.510;2022-08-04T05:24:06;101293.31;;;19.72;91.70
11440;BME280;5776;51.814;4.510;2022-08-04T05:26:37;101299.63;;;19.72;90.93
11440;BME280;5776;51.814;4.510;2022-08-04T05:29:08;101301.13;;;19.70;91.51
11440;BME280;5776;51.814;4.510;2022-08-04T05:31:40;101297.22;;;19.71;92.11
11440;BME280;5776;51.814;4.510;2022-08-04T05:34:11;101301.59;;;19.72;91.69
11440;BME280;5776;51.814;4.510;2022-08-04T05:36:49;101303.19;;;19.73;91.54
11440;BME280;5776;51.814;4.510;2022-08-04T05:39:53;101302.50;;;19.76;91.98
11440;BME280;5776;51.814;4.510;2022-08-04T05:42:21;101307.69;;;19.77;92.09
11440;BME280;5776;51.814;4.510;2022-08-04T05:44:47;101310.13;;;19.79;91.88
11440;BME280;5776;51.814;4.510;2022-08-04T05:47:14;101307.84;;;19.93;91.08
11440;BME280;5776;51.814;4.510;2022-08-04T05:49:41;101308.69;;;20.06;90.90
11440;BME280;5776;51.814;4.510;2022-08-04T05:52:09;101312.84;;;20.12;90.74
11440;BME280;5776;51.814;4.510;2022-08-04T05:54:37;101306.97;;;20.14;90.67
11440;BME280;5776;51.814;4.510;2022-08-04T05:57:05;101303.19;;;20.18;90.26
11440;BME280;5776;51.814;4.510;2022-08-04T05:59:33;101305.25;;;20.21;90.56
11440;BME280;5776;51.814;4.510;2022-08-04T06:02:01;101305.25;;;20.21;90.64
11440;BME280;5776;51.814;4.510;2022-08-04T06:04:38;101309.31;;;20.24;91.00
11440;BME280;5776;51.814;4.510;2022-08-04T06:07:05;101307.00;;;20.26;90.13
11440;BME280;5776;51.814;4.510;2022-08-04T06:09:32;101310.22;;;20.28;90.04
11440;BME280;5776;51.814;4.510;2022-08-04T06:12:00;101315.97;;;20.35;89.16
11440;BME280;5776;51.814;4.510;2022-08-04T06:14:32;101311.84;;;20.41;88.92
11440;BME280;5776;51.814;4.510;2022-08-04T06:16:58;101311.75;;;20.50;86.91
11440;BME280;5776;51.814;4.510;2022-08-04T06:19:28;101312.00;;;20.57;85.73
11440;BME280;5776;51.814;4.510;2022-08-04T06:21:57;101313.75;;;20.62;84.93
11440;BME280;5776;51.814;4.510;2022-08-04T06:24:25;101308.34;;;20.65;84.56
11440;BME280;5776;51.814;4.510;2022-08-04T06:26:54;101308.44;;;20.69;85.14
11440;BME280;5776;51.814;4.510;2022-08-04T06:29:22;101306.13;;;20.71;83.65
11440;BME280;5776;51.814;4.510;2022-08-04T06:31:53;101313.38;;;20.76;84.27
11440;BME280;5776;51.814;4.510;2022-08-04T06:34:24;101313.94;;;20.81;84.41
11440;BME280;5776;51.814;4.510;2022-08-04T06:36:51;101315.44;;;20.91;83.81
11440;BME280;5776;51.814;4.510;2022-08-04T06:39:20;101308.41;;;20.93;83.70
11440;BME280;5776;51.814;4.510;2022-08-04T06:41:49;101313.94;;;20.93;83.82
11440;BME280;5776;51.814;4.510;2022-08-04T06:44:17;101318.09;;;21.00;83.57
11440;BME280;5776;51.814;4.510;2022-08-04T06:46:45;101314.16;;;21.01;83.71
11440;BME280;5776;51.814;4.510;2022-08-04T06:49:12;101315.97;;;21.09;83.13
11440;BME280;5776;51.814;4.510;2022-08-04T06:51:38;101313.69;;;21.11;83.28
11440;BME280;5776;51.814;4.510;2022-08-04T06:54:06;101317.84;;;21.17;82.88
11440;BME280;5776;51.814;4.510;2022-08-04T06:56:33;101317.13;;;21.20;82.30
11440;BME280;5776;51.814;4.510;2022-08-04T06:59:01;101326.34;;;21.24;82.42
11440;BME280;5776;51.814;4.510;2022-08-04T07:01:29;101324.47;;;21.28;82.21
11440;BME280;5776;51.814;4.510;2022-08-04T07:03:56;101315.47;;;21.31;81.63
11440;BME280;5776;51.814;4.510;2022-08-04T07:06:23;101324.94;;;21.30;81.86
11440;BME280;5776;51.814;4.510;2022-08-04T07:08:51;101325.38;;;21.32;81.38
11440;BME280;5776;51.814;4.510;2022-08-04T07:11:18;101327.91;;;21.38;81.58
11440;BME280;5776;51.814;4.510;2022-08-04T07:13:45;101335.97;;;21.43;81.33
11440;BME280;5776;51.814;4.510;2022-08-04T07:16:12;101342.53;;;21.38;80.58
11440;BME280;5776;51.814;4.510;2022-08-04T07:18:40;101345.19;;;21.34;81.21
11440;BME280;5776;51.814;4.510;2022-08-04T07:21:06;101345.19;;;21.34;80.96
11440;BME280;5776;51.814;4.510;2022-08-04T07:23:32;101344.34;;;21.34;80.54
11440;BME280;5776;51.814;4.510;2022-08-04T07:25:58;101345.19;;;21.34;80.73
11440;BME280;5776;51.814;4.510;2022-08-04T07:28:26;101346.44;;;21.37;80.01
11440;BME280;5776;51.814;4.510;2022-08-04T07:30:54;101350.00;;;21.38;79.72
11440;BME280;5776;51.814;4.510;2022-08-04T07:33:20;101351.63;;;21.39;80.28
11440;BME280;5776;51.814;4.510;2022-08-04T07:35:51;101364.31;;;21.40;79.52
11440;BME280;5776;51.814;4.510;2022-08-04T07:38:17;101371.44;;;21.41;79.08
11440;BME280;5776;51.814;4.510;2022-08-04T07:40:44;101363.94;;;21.41;79.51
11440;BME280;5776;51.814;4.510;2022-08-04T07:43:10;101369.13;;;21.43;79.17
11440;BME280;5776;51.814;4.510;2022-08-04T07:45:36;101371.09;;;21.42;79.41
11440;BME280;5776;51.814;4.510;2022-08-04T07:48:03;101372.69;;;21.43;78.74
11440;BME280;5776;51.814;4.510;2022-08-04T07:50:30;101379.03;;;21.44;78.36
11440;BME280;5776;51.814;4.510;2022-08-04T07:52:56;101373.97;;;21.46;78.47
11440;BME280;5776;51.814;4.510;2022-08-04T07:55:22;101368.56;;;21.49;77.91
11440;BME280;5776;51.814;4.510;2022-08-04T07:57:49;101375.69;;;21.50;77.27
11440;BME280;5776;51.814;4.510;2022-08-04T08:00:15;101378.91;;;21.52;77.71
11440;BME280;5776;51.814;4.510;2022-08-04T08:02:44;101380.50;;;21.53;77.08
11440;BME280;5776;51.814;4.510;2022-08-04T08:05:14;101381.75;;;21.56;77.58
11440;BME280;5776;51.814;4.510;2022-08-04T08:07:44;101377.84;;;21.57;76.60
11440;BME280;5776;51.814;4.510;2022-08-04T08:10:11;101378.28;;;21.59;76.41
11440;BME280;5776;51.814;4.510;2022-08-04T08:12:39;101374.72;;;21.58;77.14
11440;BME280;5776;51.814;4.510;2022-08-04T08:15:07;101387.75;;;21.58;75.87
11440;BME280;5776;51.814;4.510;2022-08-04T08:17:34;101382.22;;;21.58;76.45
11440;BME280;5776;51.814;4.510;2022-08-04T08:20:00;101384.63;;;21.60;75.84
11440;BME280;5776;51.814;4.510;2022-08-04T08:22:27;101383.13;;;21.62;76.54
11440;BME280;5776;51.814;4.510;2022-08-04T08:24:53;101398.22;;;21.65;76.52
11440;BME280;5776;51.814;4.510;2022-08-04T08:27:20;101389.56;;;21.66;76.32
11440;BME280;5776;51.814;4.510;2022-08-04T08:29:47;101390.34;;;21.67;76.14
11440;BME280;5776;51.814;4.510;2022-08-04T08:32:14;101388.84;;;21.69;76.64
11440;BME280;5776;51.814;4.510;2022-08-04T08:34:41;101383.78;;;21.71;76.03
11440;BME280;5776;51.814;4.510;2022-08-04T08:42:46;101383.09;;;21.74;75.34
11440;BME280;5776;51.814;4.510;2022-08-04T08:46:02;101380.75;;;21.76;75.21
11440;BME280;5776;51.814;4.510;2022-08-04T08:48:53;101383.66;;;21.80;75.06
11440;BME280;5776;51.814;4.510;2022-08-04T08:57:36;101386.38;;;21.92;73.86
11440;BME280;5776;51.814;4.510;2022-08-04T09:00:15;101384.84;;;21.95;73.04
11440;BME280;5776;51.814;4.510;2022-08-04T09:13:56;101408.25;;;21.97;72.42
11440;BME280;5776;51.814;4.510;2022-08-04T09:16:51;101420.19;;;22.01;73.56
11440;BME280;5776;51.814;4.510;2022-08-04T09:22:00;101434.72;;;21.98;72.43
11440;BME280;5776;51.814;4.510;2022-08-04T09:24:37;101434.00;;;22.01;73.37
11440;BME280;5776;51.814;4.510;2022-08-04T09:27:18;101429.75;;;22.04;72.89
11440;BME280;5776;51.814;4.510;2022-08-04T09:30:07;101426.63;;;22.06;73.46
11440;BME280;5776;51.814;4.510;2022-08-04T09:32:59;101432.97;;;22.06;72.53
11440;BME280;5776;51.814;4.510;2022-08-04T09:35:47;101441.25;;;22.06;73.46
11440;BME280;5776;51.814;4.510;2022-08-04T09:41:02;101435.03;;;22.09;72.54
11440;BME280;5776;51.814;4.510;2022-08-04T09:46:51;101445.41;;;22.12;72.60
11440;BME280;5776;51.814;4.510;2022-08-04T09:49:34;101457.59;;;22.11;73.51
11440;BME280;5776;51.814;4.510;2022-08-04T09:52:20;101455.63;;;22.12;73.28
11440;BME280;5776;51.814;4.510;2022-08-04T09:57:43;101447.09;;;22.17;73.74
11440;BME280;5776;51.814;4.510;2022-08-04T10:00:13;101444.78;;;22.19;73.90
11440;BME280;5776;51.814;4.510;2022-08-04T10:02:54;101448.84;;;22.21;73.28
11440;BME280;5776;51.814;4.510;2022-08-04T10:05:24;101441.44;;;22.26;72.99
11440;BME280;5776;51.814;4.510;2022-08-04T10:08:08;101456.53;;;22.28;72.65
11440;BME280;5776;51.814;4.510;2022-08-04T10:21:44;101461.09;;;22.36;72.43
11440;BME280;5776;51.814;4.510;2022-08-04T10:24:32;101461.91;;;22.37;73.50
11440;BME280;5776;51.814;4.510;2022-08-04T10:27:11;101458.00;;;22.38;73.01
11440;BME280;5776;51.814;4.510;2022-08-04T10:29:43;101467.63;;;22.44;73.03
11440;BME280;5776;51.814;4.510;2022-08-04T10:32:30;101469.72;;;22.47;71.64
11440;BME280;5776;51.814;4.510;2022-08-04T10:35:08;101461.41;;;22.47;72.48
11440;BME280;5776;51.814;4.510;2022-08-04T10:37:39;101463.00;;;22.48;71.67
11440;BME280;5776;51.814;4.510;2022-08-04T10:40:19;101467.13;;;22.54;71.34
11440;BME280;5776;51.814;4.510;2022-08-04T10:46:18;101456.59;;;22.60;70.91
11440;BME280;5776;51.814;4.510;2022-08-04T10:49:08;101451.88;;;22.60;70.85
11440;BME280;5776;51.814;4.510;2022-08-04T10:55:01;101442.94;;;22.67;71.19
11440;BME280;5776;51.814;4.510;2022-08-04T10:57:37;101443.13;;;22.74;71.36
11440;BME280;5776;51.814;4.510;2022-08-04T11:00:21;101445.88;;;22.74;71.29
11440;BME280;5776;51.814;4.510;2022-08-04T11:03:10;101443.94;;;22.75;70.83
11440;BME280;5776;51.814;4.510;2022-08-04T11:05:55;101446.44;;;22.80;71.82
11440;BME280;5776;51.814;4.510;2022-08-04T11:08:26;101437.03;;;22.84;71.40
11440;BME280;5776;51.814;4.510;2022-08-04T11:11:00;101430.81;;;22.88;71.27
11440;BME280;5776;51.814;4.510;2022-08-04T11:13:43;101433.94;;;22.86;70.70
11440;BME280;5776;51.814;4.510;2022-08-04T11:16:20;101430.09;;;22.91;70.71
11440;BME280;5776;51.814;4.510;2022-08-04T11:18:56;101421.19;;;22.97;70.94
11440;BME280;5776;51.814;4.510;2022-08-04T11:21:32;101424.03;;;23.01;71.08
11440;BME280;5776;51.814;4.510;2022-08-04T11:24:06;101422.97;;;23.05;71.74
11440;BME280;5776;51.814;4.510;2022-08-04T11:27:00;101424.28;;;23.12;70.74
11440;BME280;5776;51.814;4.510;2022-08-04T11:29:45;101423.66;;;23.18;70.83
11440;BME280;5776;51.814;4.510;2022-08-04T11:33:00;101437.75;;;23.29;69.94
11440;BME280;5776;51.814;4.510;2022-08-04T11:35:34;101438.22;;;23.31;69.27
11440;BME280;5776;51.814;4.510;2022-08-04T11:38:36;101449.75;;;23.33;68.83
11440;BME280;5776;51.814;4.510;2022-08-04T11:41:11;101446.25;;;23.36;69.16
11440;BME280;5776;51.814;4.510;2022-08-04T11:43:48;101449.34;;;23.35;69.48
11440;BME280;5776;51.814;4.510;2022-08-04T11:46:24;101449.47;;;23.38;69.11
11440;BME280;5776;51.814;4.510;2022-08-04T11:48:57;101457.50;;;23.43;68.58
11440;BME280;5776;51.814;4.510;2022-08-04T11:51:26;101461.50;;;23.46;68.35
11440;BME280;5776;51.814;4.510;2022-08-04T11:53:53;101461.16;;;23.47;68.54
11440;BME280;5776;51.814;4.510;2022-08-04T11:56:20;101458.75;;;23.46;68.98
11440;BME280;5776;51.814;4.510;2022-08-04T11:58:46;101455.63;;;23.47;68.54
11440;BME280;5776;51.814;4.510;2022-08-04T12:02:18;101463.28;;;23.54;68.70
11440;BME280;5776;51.814;4.510;2022-08-04T12:07:09;101465.97;;;23.50;67.51
11440;BME280;5776;51.814;4.510;2022-08-04T12:10:00;101467.13;;;23.49;68.11
11440;BME280;5776;51.814;4.510;2022-08-04T12:12:38;101474.63;;;23.49;68.01
11440;BME280;5776;51.814;4.510;2022-08-04T12:15:29;101471.25;;;23.56;68.30
11440;BME280;5776;51.814;4.510;2022-08-04T12:18:18;101468.53;;;23.59;67.66
11440;BME280;5776;51.814;4.510;2022-08-04T12:20:54;101468.19;;;23.61;67.62
11440;BME280;5776;51.814;4.510;2022-08-04T12:23:31;101470.66;;;23.66;67.23
11440;BME280;5776;51.814;4.510;2022-08-04T12:26:02;101463.66;;;23.72;67.02
11440;BME280;5776;51.814;4.510;2022-08-04T12:28:32;101467.34;;;23.76;67.06
11440;BME280;5776;51.814;4.510;2022-08-04T12:31:04;101470.59;;;23.78;66.83
11440;BME280;5776;51.814;4.510;2022-08-04T12:33:48;101468.25;;;23.80;66.96
11440;BME280;5776;51.814;4.510;2022-08-04T12:36:21;101465.19;;;23.85;66.81
11440;BME280;5776;51.814;4.510;2022-08-04T12:39:02;101474.75;;;23.88;66.08
11440;BME280;5776;51.814;4.510;2022-08-04T12:41:38;101466.84;;;23.90;66.29
11440;BME280;5776;51.814;4.510;2022-08-04T12:44:09;101471.25;;;23.91;65.90
11440;BME280;5776;51.814;4.510;2022-08-04T12:46:37;101476.41;;;23.92;65.65
11440;BME280;5776;51.814;4.510;2022-08-04T12:49:05;101476.84;;;23.94;65.23
11440;BME280;5776;51.814;4.510;2022-08-04T12:51:39;101482.13;;;24.00;63.88
11440;BME280;5776;51.814;4.510;2022-08-04T12:54:08;101480.97;;;24.01;64.43
11440;BME280;5776;51.814;4.510;2022-08-04T12:56:35;101486.97;;;24.03;64.65
11440;BME280;5776;51.814;4.510;2022-08-04T12:59:05;101480.97;;;24.01;64.27
11440;BME280;5776;51.814;4.510;2022-08-04T13:01:32;101480.22;;;24.04;63.20
11440;BME280;5776;51.814;4.510;2022-08-04T13:06:34;101494.09;;;24.04;63.58
11440;BME280;5776;51.814;4.510;2022-08-04T13:09:15;101492.56;;;24.06;63.37
11440;BME280;5776;51.814;4.510;2022-08-04T13:11:53;101487.81;;;24.07;63.12
11440;BME280;5776;51.814;4.510;2022-08-04T13:14:21;101485.84;;;24.07;63.44
11440;BME280;5776;51.814;4.510;2022-08-04T13:16:55;101494.25;;;24.11;63.09
11440;BME280;5776;51.814;4.510;2022-08-04T13:19:22;101489.50;;;24.11;63.17
11440;BME280;5776;51.814;4.510;2022-08-04T13:21:50;101490.69;;;24.10;63.04
11440;BME280;5776;51.814;4.510;2022-08-04T13:24:19;101491.84;;;24.09;62.41
11440;BME280;5776;51.814;4.510;2022-08-04T13:26:57;101485.47;;;24.09;62.86
11440;BME280;5776;51.814;4.510;2022-08-04T13:29:29;101495.84;;;24.12;64.12
11440;BME280;5776;51.814;4.510;2022-08-04T13:31:57;101491.91;;;24.13;63.60
11440;BME280;5776;51.814;4.510;2022-08-04T13:34:24;101494.31;;;24.14;64.38
11440;BME280;5776;51.814;4.510;2022-08-04T13:36:54;101488.75;;;24.14;63.64
11440;BME280;5776;51.814;4.510;2022-08-04T13:39:21;101495.00;;;24.08;63.32
11440;BME280;5776;51.814;4.510;2022-08-04T13:41:51;101490.59;;;24.07;64.06
11440;BME280;5776;51.814;4.510;2022-08-04T13:44:20;101498.56;;;24.08;63.49
11440;BME280;5776;51.814;4.510;2022-08-04T13:47:09;101498.63;;;24.12;63.64
11440;BME280;5776;51.814;4.510;2022-08-04T13:49:37;101497.09;;;24.14;63.17
11440;BME280;5776;51.814;4.510;2022-08-04T13:52:06;101494.69;;;24.13;63.43
11440;BME280;5776;51.814;4.510;2022-08-04T13:57:07;101500.94;;;24.10;64.32
11440;BME280;5776;51.814;4.510;2022-08-04T13:59:37;101494.31;;;24.14;63.28
11440;BME280;5776;51.814;4.510;2022-08-04T14:02:07;101497.09;;;24.14;64.15
11440;BME280;5776;51.814;4.510;2022-08-04T14:04:40;101499.06;;;24.14;63.68
11440;BME280;5776;51.814;4.510;2022-08-04T14:07:12;101499.41;;;24.12;63.89
11440;BME280;5776;51.814;4.510;2022-08-04T14:09:40;101498.56;;;24.08;64.10
11440;BME280;5776;51.814;4.510;2022-08-04T14:12:09;101494.09;;;24.04;64.07
11440;BME280;5776;51.814;4.510;2022-08-04T14:14:50;101504.31;;;24.00;64.18
11440;BME280;5776;51.814;4.510;2022-08-04T14:17:23;101497.97;;;23.99;64.64
11440;BME280;5776;51.814;4.510;2022-08-04T14:25:13;101504.59;;;23.94;64.58
11440;BME280;5776;51.814;4.510;2022-08-04T14:27:50;101509.44;;;23.98;64.12
11440;BME280;5776;51.814;4.510;2022-08-04T14:30:31;101515.00;;;23.98;64.23
11440;BME280;5776;51.814;4.510;2022-08-04T14:33:04;101514.09;;;23.93;65.07
11440;BME280;5776;51.814;4.510;2022-08-04T14:35:31;101514.84;;;23.90;65.18
11440;BME280;5776;51.814;4.510;2022-08-04T14:38:06;101513.19;;;23.89;65.34
11440;BME280;5776;51.814;4.510;2022-08-04T14:40:36;101510.06;;;23.91;65.15
11440;BME280;5776;51.814;4.510;2022-08-04T14:43:03;101515.63;;;23.91;64.44
11440;BME280;5776;51.814;4.510;2022-08-04T14:45:38;101512.91;;;23.94;64.59
11440;BME280;5776;51.814;4.510;2022-08-04T14:48:10;101508.56;;;23.93;64.24
11440;BME280;5776;51.814;4.510;2022-08-04T14:50:45;101512.41;;;23.89;65.12
11440;BME280;5776;51.814;4.510;2022-08-04T14:53:20;101511.59;;;23.88;64.50
11440;BME280;5776;51.814;4.510;2022-08-04T14:55:49;101512.34;;;23.85;64.54
11440;BME280;5776;51.814;4.510;2022-08-04T14:58:24;101515.13;;;23.85;64.63
11440;BME280;5776;51.814;4.510;2022-08-04T15:00:53;101518.31;;;23.87;64.62
11440;BME280;5776;51.814;4.510;2022-08-04T15:03:19;101525.19;;;23.93;64.51
11440;BME280;5776;51.814;4.510;2022-08-04T15:05:47;101524.47;;;23.97;63.64
11440;BME280;5776;51.814;4.510;2022-08-04T15:08:13;101528.47;;;23.99;62.98
11440;BME280;5776;51.814;4.510;2022-08-04T15:10:40;101519.72;;;23.97;63.17
11440;BME280;5776;51.814;4.510;2022-08-04T15:13:07;101519.81;;;24.01;63.89
11440;BME280;5776;51.814;4.510;2022-08-04T15:15:33;101528.84;;;23.98;63.49
11440;BME280;5776;51.814;4.510;2022-08-04T15:17:59;101517.31;;;23.96;64.14
11440;BME280;5776;51.814;4.510;2022-08-04T15:20:26;101526.00;;;23.94;63.93
11440;BME280;5776;51.814;4.510;2022-08-04T15:22:51;101520.78;;;23.92;63.70
11440;BME280;5776;51.814;4.510;2022-08-04T15:25:17;101516.78;;;23.90;64.20
11440;BME280;5776;51.814;4.510;2022-08-04T15:27:47;101523.56;;;23.92;64.69
11440;BME280;5776;51.814;4.510;2022-08-04T15:30:15;101518.75;;;23.89;64.49
11440;BME280;5776;51.814;4.510;2022-08-04T15:32:53;101517.94;;;23.89;64.64
11440;BME280;5776;51.814;4.510;2022-08-04T15:35:25;101526.22;;;23.85;64.90
11440;BME280;5776;51.814;4.510;2022-08-04T15:45:31;101532.16;;;23.87;65.01
11440;BME280;5776;51.814;4.510;2022-08-04T15:53:24;101540.63;;;23.75;61.94
11440;BME280;5776;51.814;4.510;2022-08-04T15:55:51;101525.59;;;23.76;63.60
11440;BME280;5776;51.814;4.510;2022-08-04T15:58:22;101535.75;;;23.72;61.40
11440;BME280;5776;51.814;4.510;2022-08-04T16:19:31;101519.63;;;23.58;61.08
11440;BME280;5776;51.814;4.510;2022-08-04T16:22:00;101518.81;;;23.58;61.53
11440;BME280;5776;51.814;4.510;2022-08-04T16:24:38;101513.28;;;23.58;60.25
11440;BME280;5776;51.814;4.510;2022-08-04T16:27:09;101518.38;;;23.56;60.51
11440;BME280;5776;51.814;4.510;2022-08-04T16:29:45;101519.44;;;23.51;60.12
11440;BME280;5776;51.814;4.510;2022-08-04T16:32:19;101520.88;;;23.45;61.41
11440;BME280;5776;51.814;4.510;2022-08-04T16:34:48;101512.19;;;23.46;61.23
11440;BME280;5776;51.814;4.510;2022-08-04T16:37:15;101517.75;;;23.46;60.64
11440;BME280;5776;51.814;4.510;2022-08-04T16:39:42;101515.88;;;23.50;60.10
11440;BME280;5776;51.814;4.510;2022-08-04T16:42:29;101522.66;;;23.53;59.86
11440;BME280;5776;51.814;4.510;2022-08-04T16:50:20;101518.03;;;23.41;59.88
11440;BME280;5776;51.814;4.510;2022-08-04T16:52:48;101520.63;;;23.34;59.81
11440;BME280;5776;51.814;4.510;2022-08-04T16:55:22;101513.28;;;23.26;59.72
11440;BME280;5776;51.814;4.510;2022-08-04T16:57:50;101517.31;;;23.28;59.78
11440;BME280;5776;51.814;4.510;2022-08-04T17:00:17;101524.56;;;23.33;59.35
11440;BME280;5776;51.814;4.510;2022-08-04T17:02:52;101520.63;;;23.34;59.16
11440;BME280;5776;51.814;4.510;2022-08-04T17:05:24;101522.84;;;23.28;59.74
11440;BME280;5776;51.814;4.510;2022-08-04T17:07:53;101520.88;;;23.29;59.44
11440;BME280;5776;51.814;4.510;2022-08-04T17:10:32;101527.44;;;23.21;59.18
11440;BME280;5776;51.814;4.510;2022-08-04T17:13:19;101527.50;;;23.24;58.50
11440;BME280;5776;51.814;4.510;2022-08-04T17:15:47;101524.38;;;23.26;58.79
11440;BME280;5776;51.814;4.510;2022-08-04T17:18:25;101528.69;;;23.23;59.07
11440;BME280;5776;51.814;4.510;2022-08-04T17:20:53;101523.41;;;23.18;59.26
11440;BME280;5776;51.814;4.510;2022-08-04T17:25:56;101532.69;;;23.10;58.50
11440;BME280;5776;51.814;4.510;2022-08-04T17:28:22;101530.09;;;23.01;58.32
11440;BME280;5776;51.814;4.510;2022-08-04T17:30:49;101538.41;;;23.01;58.43
11440;BME280;5776;51.814;4.510;2022-08-04T17:33:16;101530.81;;;22.98;57.88
11440;BME280;5776;51.814;4.510;2022-08-04T17:35:43;101531.03;;;22.93;57.48
11440;BME280;5776;51.814;4.510;2022-08-04T17:38:10;101537.72;;;22.92;57.88
11440;BME280;5776;51.814;4.510;2022-08-04T17:40:59;101535.22;;;22.87;57.97
11440;BME280;5776;51.814;4.510;2022-08-04T17:46:14;101526.38;;;22.81;58.02
11440;BME280;5776;51.814;4.510;2022-08-04T17:48:41;101522.25;;;22.75;57.67
11440;BME280;5776;51.814;4.510;2022-08-04T17:51:14;101522.88;;;22.69;57.80